createdAt,value
2022-08-27T00:01:55.866Z,7.00
2022-08-27T00:04:43.559Z,8.00
2022-08-27T00:07:31.014Z,7.20
2022-08-27T00:10:20.494Z,8.30
2022-08-27T00:13:07.613Z,8.30
2022-08-27T00:15:56.000Z,8.97
2022-08-27T00:18:48.043Z,9.00
2022-08-27T00:21:35.205Z,7.77
2022-08-27T00:24:21.967Z,7.27
2022-08-27T00:27:08.540Z,8.20
2022-08-27T00:29:56.107Z,8.03
2022-08-27T00:32:44.725Z,7.70
2022-08-27T00:35:31.821Z,8.13
2022-08-27T00:38:18.820Z,8.20
2022-08-27T00:41:06.916Z,8.13
2022-08-27T00:43:57.369Z,7.80
2022-08-27T00:46:47.301Z,7.70
2022-08-27T00:49:39.754Z,8.43
2022-08-27T00:52:30.246Z,7.57
2022-08-27T00:55:20.543Z,8.30
2022-08-27T00:58:12.257Z,10.03
2022-08-27T01:01:01.945Z,8.63
2022-08-27T01:03:53.707Z,9.80
2022-08-27T01:06:41.679Z,8.43
2022-08-27T01:09:29.643Z,9.70
2022-08-27T01:12:19.050Z,8.13
2022-08-27T01:15:22.184Z,9.23
2022-08-27T01:18:13.420Z,9.30
2022-08-27T01:21:07.753Z,8.27
2022-08-27T01:24:14.718Z,9.10
2022-08-27T01:27:04.768Z,8.20
2022-08-27T01:29:54.727Z,7.57
2022-08-27T01:32:42.328Z,7.63
2022-08-27T01:35:29.118Z,8.83
2022-08-27T01:38:18.970Z,8.80
2022-08-27T01:41:20.551Z,8.80
2022-08-27T01:44:08.511Z,9.50
2022-08-27T01:46:56.938Z,9.77
2022-08-27T01:49:44.080Z,8.23
2022-08-27T01:52:31.915Z,9.73
2022-08-27T01:55:21.787Z,9.60
2022-08-27T01:58:08.395Z,8.50
2022-08-27T02:01:05.543Z,9.10
2022-08-27T02:03:52.497Z,8.73
2022-08-27T02:06:39.367Z,11.03
2022-08-27T02:09:26.811Z,8.60
2022-08-27T02:12:14.215Z,9.00
2022-08-27T02:15:01.584Z,8.87
2022-08-27T02:17:49.711Z,10.13
2022-08-27T02:20:37.381Z,8.50
2022-08-27T02:23:23.903Z,8.60
2022-08-27T02:26:11.013Z,8.20
2022-08-27T02:28:57.597Z,8.90
2022-08-27T02:31:44.444Z,8.60
2022-08-27T02:34:32.500Z,7.73
2022-08-27T02:37:19.204Z,9.43
2022-08-27T02:40:08.213Z,8.23
2022-08-27T02:42:54.819Z,7.67
2022-08-27T02:45:41.412Z,9.00
2022-08-27T02:48:28.736Z,9.07
2022-08-27T02:51:16.908Z,8.73
2022-08-27T02:54:04.916Z,9.00
2022-08-27T02:56:55.764Z,9.40
2022-08-27T02:59:43.244Z,9.17
2022-08-27T03:02:30.208Z,9.80
2022-08-27T03:05:19.256Z,8.20
2022-08-27T03:08:08.011Z,9.50
2022-08-27T03:10:55.256Z,9.93
2022-08-27T03:13:42.283Z,9.33
2022-08-27T03:16:29.533Z,8.47
2022-08-27T03:19:19.810Z,9.80
2022-08-27T03:22:10.971Z,9.30
2022-08-27T03:24:58.754Z,11.13
2022-08-27T03:27:45.639Z,10.50
2022-08-27T03:30:32.695Z,9.20
2022-08-27T03:33:19.797Z,8.73
2022-08-27T03:36:08.801Z,9.47
2022-08-27T03:38:55.708Z,9.63
2022-08-27T03:41:55.478Z,9.67
2022-08-27T03:44:42.418Z,9.63
2022-08-27T03:47:29.125Z,9.93
2022-08-27T03:50:15.804Z,10.73
2022-08-27T03:53:02.576Z,10.03
2022-08-27T03:55:50.023Z,9.83
2022-08-27T03:58:38.961Z,10.77
2022-08-27T04:01:25.626Z,10.13
2022-08-27T04:04:14.156Z,9.33
2022-08-27T04:07:01.439Z,8.47
2022-08-27T04:09:47.905Z,8.07
2022-08-27T04:12:34.703Z,9.47
2022-08-27T04:15:22.671Z,9.40
2022-08-27T04:18:09.417Z,10.70
2022-08-27T04:20:56.855Z,9.93
2022-08-27T04:23:43.997Z,8.73
2022-08-27T04:26:30.908Z,8.60
2022-08-27T04:29:17.574Z,8.83
2022-08-27T04:32:06.560Z,9.53
2022-08-27T04:34:55.611Z,10.13
2022-08-27T04:37:42.371Z,8.70
2022-08-27T04:40:49.221Z,9.47
2022-08-27T04:43:35.653Z,9.53
2022-08-27T04:46:24.744Z,8.83
2022-08-27T04:49:16.482Z,9.23
2022-08-27T04:52:03.507Z,8.13
2022-08-27T04:54:51.681Z,8.37
2022-08-27T04:57:38.446Z,8.93
2022-08-27T05:00:25.447Z,8.80
2022-08-27T05:03:12.523Z,9.13
2022-08-27T05:06:07.230Z,8.33
2022-08-27T05:08:55.041Z,8.97
2022-08-27T05:11:42.821Z,8.20
2022-08-27T05:14:32.407Z,8.80
2022-08-27T05:17:18.885Z,8.60
2022-08-27T05:20:06.567Z,7.93
2022-08-27T05:22:55.395Z,7.80
2022-08-27T05:25:44.296Z,8.13
2022-08-27T05:28:30.856Z,7.40
2022-08-27T05:31:19.581Z,8.20
2022-08-27T05:34:10.254Z,8.03
2022-08-27T05:36:58.106Z,8.30
2022-08-27T05:39:46.222Z,7.40
2022-08-27T05:42:34.451Z,7.00
2022-08-27T05:45:21.109Z,7.47
2022-08-27T05:48:07.923Z,6.93
2022-08-27T05:50:54.780Z,8.40
2022-08-27T05:53:42.224Z,8.40
2022-08-27T05:56:32.050Z,7.13
2022-08-27T05:59:37.384Z,7.30
2022-08-27T06:02:24.387Z,6.80
2022-08-27T06:05:10.958Z,7.20
2022-08-27T06:07:57.386Z,6.90
2022-08-27T06:10:44.281Z,6.77
2022-08-27T06:13:33.495Z,6.67
2022-08-27T06:16:21.130Z,6.70
2022-08-27T06:19:09.000Z,6.90
2022-08-27T06:22:01.150Z,7.47
2022-08-27T06:24:57.288Z,6.90
2022-08-27T06:27:44.411Z,7.67
2022-08-27T06:30:32.383Z,6.67
2022-08-27T06:33:21.376Z,5.87
2022-08-27T06:36:10.700Z,5.50
2022-08-27T06:38:58.156Z,5.93
2022-08-27T06:41:45.127Z,5.20
2022-08-27T06:44:31.551Z,4.90
2022-08-27T06:47:21.303Z,5.50
2022-08-27T06:50:08.557Z,4.97
2022-08-27T06:52:55.175Z,5.20
2022-08-27T06:55:43.684Z,4.90
2022-08-27T06:58:30.228Z,4.90
2022-08-27T07:01:19.531Z,5.07
2022-08-27T07:04:10.402Z,5.07
2022-08-27T07:06:57.301Z,5.07
2022-08-27T07:09:43.989Z,5.50
2022-08-27T07:12:30.890Z,6.00
2022-08-27T07:15:18.429Z,6.30
2022-08-27T07:18:08.866Z,6.03
2022-08-27T07:20:58.916Z,5.90
2022-08-27T07:23:45.623Z,5.97
2022-08-27T07:26:34.786Z,5.73
2022-08-27T07:29:21.598Z,6.43
2022-08-27T07:32:08.139Z,6.70
2022-08-27T07:34:54.953Z,6.50
2022-08-27T07:37:43.273Z,6.13
2022-08-27T07:40:30.117Z,6.40
2022-08-27T07:43:34.794Z,6.10
2022-08-27T07:46:21.995Z,6.43
2022-08-27T07:49:08.481Z,6.23
2022-08-27T07:51:55.256Z,6.43
2022-08-27T07:54:43.512Z,5.73
2022-08-27T07:57:31.630Z,5.73
2022-08-27T08:00:18.208Z,5.97
2022-08-27T08:03:05.119Z,6.63
2022-08-27T08:05:53.388Z,6.40
2022-08-27T08:08:41.752Z,6.37
2022-08-27T08:11:32.008Z,6.20
2022-08-27T08:14:19.524Z,6.97
2022-08-27T08:17:06.472Z,6.93
2022-08-27T08:20:18.481Z,6.33
2022-08-27T08:23:04.598Z,6.80
2022-08-27T08:25:57.768Z,6.70
2022-08-27T08:28:46.436Z,7.97
2022-08-27T08:31:32.828Z,6.87
2022-08-27T08:34:20.476Z,7.13
2022-08-27T08:37:07.666Z,7.00
2022-08-27T08:39:55.105Z,7.87
2022-08-27T08:42:50.669Z,7.33
2022-08-27T08:45:43.422Z,7.67
2022-08-27T08:48:32.457Z,7.80
2022-08-27T08:51:26.646Z,7.37
2022-08-27T08:54:17.897Z,7.27
2022-08-27T08:57:09.292Z,7.70
2022-08-27T09:00:01.760Z,6.77
2022-08-27T09:02:54.902Z,6.97
2022-08-27T09:05:46.910Z,6.20
2022-08-27T09:08:40.649Z,7.13
2022-08-27T09:11:35.220Z,6.87
2022-08-27T09:14:37.083Z,7.03
2022-08-27T09:17:24.384Z,5.90
2022-08-27T09:20:14.510Z,6.17
2022-08-27T09:23:11.883Z,5.10
2022-08-27T09:25:58.773Z,5.70
2022-08-27T09:29:03.015Z,4.90
2022-08-27T09:31:55.683Z,5.27
2022-08-27T09:34:44.608Z,5.23
2022-08-27T09:37:34.990Z,5.60
2022-08-27T09:40:29.763Z,5.40
2022-08-27T09:43:24.364Z,5.47
2022-08-27T09:46:20.524Z,5.30
2022-08-27T09:49:12.434Z,4.93
2022-08-27T09:51:59.725Z,5.97
2022-08-27T09:54:48.266Z,4.90
2022-08-27T09:57:36.988Z,5.93
2022-08-27T10:00:34.673Z,5.73
2022-08-27T10:03:23.656Z,5.80
2022-08-27T10:06:11.089Z,5.70
2022-08-27T10:09:06.490Z,5.30
2022-08-27T10:12:01.001Z,5.47
2022-08-27T10:14:52.501Z,6.23
2022-08-27T10:17:47.654Z,5.40
2022-08-27T10:20:44.871Z,5.73
2022-08-27T10:23:40.986Z,5.90
2022-08-27T10:26:33.703Z,6.60
2022-08-27T10:29:34.129Z,5.73
2022-08-27T10:32:39.151Z,5.73
2022-08-27T10:35:29.813Z,5.47
2022-08-27T10:38:22.700Z,6.03
2022-08-27T10:41:17.544Z,6.27
2022-08-27T10:44:18.157Z,6.17
2022-08-27T10:47:18.173Z,6.60
2022-08-27T10:50:08.477Z,5.90
2022-08-27T10:53:01.305Z,6.20
2022-08-27T10:55:52.567Z,6.27
2022-08-27T10:58:49.931Z,7.03
2022-08-27T11:01:47.767Z,6.13
2022-08-27T11:04:40.854Z,6.53
2022-08-27T11:07:31.840Z,5.60
2022-08-27T11:10:23.350Z,6.20
2022-08-27T11:13:15.191Z,6.33
2022-08-27T11:16:04.019Z,6.17
2022-08-27T11:18:54.413Z,6.43
2022-08-27T11:21:47.918Z,6.40
2022-08-27T11:24:41.445Z,6.50
2022-08-27T11:27:33.912Z,6.57
2022-08-27T11:30:25.589Z,6.00
2022-08-27T11:33:20.372Z,6.97
2022-08-27T11:36:25.077Z,6.60
2022-08-27T11:39:25.891Z,6.70
2022-08-27T11:42:21.222Z,6.93
2022-08-27T11:45:16.817Z,6.30
2022-08-27T11:48:16.994Z,5.90
2022-08-27T11:51:06.998Z,6.43
2022-08-27T11:53:58.518Z,6.63
2022-08-27T11:56:46.826Z,7.10
2022-08-27T11:59:35.376Z,6.10
2022-08-27T12:02:26.173Z,7.03
2022-08-27T12:05:26.629Z,6.97
2022-08-27T12:08:18.849Z,6.80
2022-08-27T12:11:26.566Z,7.37
2022-08-27T12:14:32.339Z,7.10
2022-08-27T12:17:28.022Z,6.83
2022-08-27T12:20:25.338Z,7.10
2022-08-27T12:23:36.955Z,7.17
2022-08-27T12:26:32.795Z,6.73
2022-08-27T12:29:32.807Z,6.43
2022-08-27T12:32:27.151Z,6.17
2022-08-27T12:35:18.519Z,6.20
2022-08-27T12:38:14.810Z,6.70
2022-08-27T12:41:05.668Z,7.07
2022-08-27T12:44:03.156Z,6.10
2022-08-27T12:46:54.432Z,6.27
2022-08-27T12:49:46.675Z,6.00
2022-08-27T12:53:06.598Z,5.77
2022-08-27T12:56:04.063Z,5.83
2022-08-27T12:58:57.099Z,6.80
2022-08-27T13:01:59.742Z,6.73
2022-08-27T13:04:48.115Z,6.47
2022-08-27T13:07:41.549Z,6.70
2022-08-27T13:10:31.663Z,6.57
2022-08-27T13:13:20.926Z,6.33
2022-08-27T13:16:07.939Z,5.93
2022-08-27T13:18:55.939Z,6.57
2022-08-27T13:21:48.226Z,5.80
2022-08-27T13:24:37.082Z,5.73
2022-08-27T13:27:29.939Z,5.90
2022-08-27T13:30:19.859Z,6.27
2022-08-27T13:33:25.439Z,6.00
2022-08-27T13:36:13.396Z,5.57
2022-08-27T13:39:00.579Z,5.57
2022-08-27T13:41:50.068Z,5.90
2022-08-27T13:44:38.708Z,6.17
2022-08-27T13:47:27.732Z,5.77
2022-08-27T13:50:22.806Z,5.90
2022-08-27T13:53:30.284Z,5.90
2022-08-27T13:56:28.916Z,6.47
2022-08-27T13:59:24.176Z,5.73
2022-08-27T14:02:22.840Z,5.60
2022-08-27T14:05:14.909Z,5.60
2022-08-27T14:08:14.500Z,6.00
2022-08-27T14:11:05.337Z,5.77
2022-08-27T14:13:52.949Z,5.87
2022-08-27T14:16:39.844Z,6.20
2022-08-27T14:19:33.307Z,6.50
2022-08-27T14:22:24.966Z,6.07
2022-08-27T14:25:15.656Z,6.20
2022-08-27T14:28:02.908Z,6.20
2022-08-27T14:30:53.599Z,6.63
2022-08-27T14:33:40.826Z,6.13
2022-08-27T14:36:33.637Z,5.60
2022-08-27T14:39:26.572Z,6.00
2022-08-27T14:42:17.613Z,6.90
2022-08-27T14:45:04.845Z,6.80
2022-08-27T14:47:52.808Z,6.80
2022-08-27T14:50:39.388Z,6.30
2022-08-27T14:53:27.032Z,6.30
2022-08-27T14:56:13.650Z,6.10
2022-08-27T14:59:01.744Z,5.87
2022-08-27T15:01:48.932Z,6.43
2022-08-27T15:04:36.152Z,6.70
2022-08-27T15:07:23.593Z,6.47
2022-08-27T15:10:12.747Z,6.17
2022-08-27T15:12:59.936Z,6.97
2022-08-27T15:15:48.477Z,6.77
2022-08-27T15:18:39.024Z,6.93
2022-08-27T15:21:26.441Z,7.23
2022-08-27T15:24:18.030Z,6.73
2022-08-27T15:27:05.172Z,6.80
2022-08-27T15:29:51.604Z,6.63
2022-08-27T15:32:45.209Z,6.73
2022-08-27T15:35:32.108Z,6.93
2022-08-27T15:38:18.789Z,6.43
2022-08-27T15:41:05.589Z,7.23
2022-08-27T15:43:52.693Z,7.27
2022-08-27T15:46:39.730Z,7.13
2022-08-27T15:49:28.027Z,6.40
2022-08-27T15:52:25.273Z,6.83
2022-08-27T15:55:32.076Z,6.43
2022-08-27T15:58:33.831Z,6.50
2022-08-27T16:01:38.650Z,6.73
2022-08-27T16:04:31.811Z,6.33
2022-08-27T16:07:21.441Z,5.70
2022-08-27T16:10:22.697Z,6.83
2022-08-27T16:13:12.246Z,6.63
2022-08-27T16:16:09.668Z,7.30
2022-08-27T16:19:16.039Z,7.10
2022-08-27T16:22:18.668Z,7.57
2022-08-27T16:25:30.923Z,7.23
2022-08-27T16:28:27.238Z,6.63
2022-08-27T16:31:22.522Z,6.60
2022-08-27T16:34:26.254Z,6.60
2022-08-27T16:37:29.836Z,5.90
2022-08-27T16:40:21.734Z,5.90
2022-08-27T16:43:13.649Z,5.47
2022-08-27T16:46:04.965Z,5.30
2022-08-27T16:49:12.159Z,4.90
2022-08-27T16:52:21.313Z,4.73
2022-08-27T16:55:16.501Z,4.77
2022-08-27T16:58:13.072Z,4.43
2022-08-27T17:01:10.422Z,4.30
2022-08-27T17:04:12.877Z,4.67
2022-08-27T17:07:03.162Z,4.70
2022-08-27T17:09:52.023Z,4.77
2022-08-27T17:12:41.193Z,4.43
2022-08-27T17:15:28.574Z,4.80
2022-08-27T17:18:17.698Z,4.93
2022-08-27T17:21:08.300Z,5.50
2022-08-27T17:23:59.740Z,5.10
2022-08-27T17:26:48.482Z,5.10
2022-08-27T17:29:38.163Z,5.23
2022-08-27T17:32:26.427Z,5.00
2022-08-27T17:35:15.905Z,5.37
2022-08-27T17:38:04.834Z,4.60
2022-08-27T17:40:54.308Z,4.93
2022-08-27T17:43:42.673Z,5.23
2022-08-27T17:46:31.302Z,5.97
2022-08-27T17:49:19.122Z,5.57
2022-08-27T17:52:10.743Z,5.53
2022-08-27T17:54:57.728Z,5.00
2022-08-27T17:57:44.762Z,4.67
2022-08-27T18:00:33.800Z,4.60
2022-08-27T18:03:21.866Z,4.77
2022-08-27T18:06:08.987Z,3.70
2022-08-27T18:08:55.608Z,4.53
2022-08-27T18:11:42.189Z,4.77
2022-08-27T18:14:28.803Z,4.23
2022-08-27T18:17:15.686Z,4.70
2022-08-27T18:20:05.650Z,3.90
2022-08-27T18:22:52.953Z,4.13
2022-08-27T18:25:40.443Z,3.93
2022-08-27T18:28:28.871Z,3.87
2022-08-27T18:31:18.908Z,3.60
2022-08-27T18:34:05.779Z,3.40
2022-08-27T18:36:53.700Z,3.47
2022-08-27T18:39:40.747Z,3.63
2022-08-27T18:42:40.150Z,3.20
2022-08-27T18:45:30.153Z,3.20
2022-08-27T18:48:21.990Z,3.20
2022-08-27T18:51:12.698Z,3.17
2022-08-27T18:54:03.628Z,3.00
2022-08-27T18:56:53.577Z,3.40
2022-08-27T18:59:42.381Z,3.30
2022-08-27T19:02:33.386Z,3.47
2022-08-27T19:05:24.988Z,2.90
2022-08-27T19:08:11.687Z,2.87
2022-08-27T19:10:59.793Z,2.77
2022-08-27T19:13:50.336Z,3.00
2022-08-27T19:16:42.972Z,2.60
2022-08-27T19:19:30.130Z,2.73
2022-08-27T19:22:16.758Z,2.70
2022-08-27T19:25:05.124Z,3.00
2022-08-27T19:27:54.497Z,2.60
2022-08-27T19:30:40.929Z,2.50
2022-08-27T19:33:27.595Z,2.67
2022-08-27T19:36:16.886Z,2.73
2022-08-27T19:39:04.392Z,2.60
2022-08-27T19:41:51.138Z,2.63
2022-08-27T19:44:39.212Z,2.60
2022-08-27T19:47:26.337Z,2.50
2022-08-27T19:50:16.222Z,2.23
2022-08-27T19:53:02.758Z,2.10
2022-08-27T19:55:49.584Z,2.23
2022-08-27T19:58:36.851Z,2.63
2022-08-27T20:01:25.019Z,2.30
2022-08-27T20:04:11.677Z,2.70
2022-08-27T20:06:58.302Z,2.50
2022-08-27T20:09:45.409Z,2.60
2022-08-27T20:12:33.425Z,2.50
2022-08-27T20:15:23.469Z,2.40
2022-08-27T20:18:15.879Z,2.60
2022-08-27T20:21:10.222Z,2.60
2022-08-27T20:23:59.202Z,2.73
2022-08-27T20:26:47.900Z,2.63
2022-08-27T20:29:36.398Z,3.00
2022-08-27T20:32:29.246Z,2.80
2022-08-27T20:35:18.545Z,2.80
2022-08-27T20:38:05.852Z,2.60
2022-08-27T20:40:53.247Z,2.87
2022-08-27T20:43:40.161Z,3.00
2022-08-27T20:46:30.629Z,2.93
2022-08-27T20:49:17.196Z,3.13
2022-08-27T20:52:08.618Z,3.03
2022-08-27T20:54:57.592Z,3.60
2022-08-27T20:58:06.932Z,4.17
2022-08-27T21:00:55.846Z,2.57
2022-08-27T21:03:42.469Z,3.73
2022-08-27T21:06:32.964Z,3.20
2022-08-27T21:09:21.528Z,3.23
2022-08-27T21:12:08.596Z,3.53
2022-08-27T21:14:56.463Z,3.83
2022-08-27T21:17:43.900Z,3.70
2022-08-27T21:20:30.590Z,3.70
2022-08-27T21:23:17.299Z,3.60
2022-08-27T21:26:09.947Z,3.83
2022-08-27T21:28:57.123Z,4.20
2022-08-27T21:31:43.790Z,4.10
2022-08-27T21:34:31.204Z,3.50
2022-08-27T21:37:17.965Z,4.00
2022-08-27T21:40:06.782Z,4.10
2022-08-27T21:42:55.915Z,4.40
2022-08-27T21:45:43.108Z,3.77
2022-08-27T21:48:29.624Z,4.07
2022-08-27T21:51:24.491Z,4.50
2022-08-27T21:54:12.040Z,4.67
2022-08-27T21:56:58.575Z,4.73
2022-08-27T21:59:49.457Z,4.53
2022-08-27T22:02:40.202Z,4.60
2022-08-27T22:05:27.089Z,5.50
2022-08-27T22:08:16.783Z,4.50
2022-08-27T22:11:03.282Z,4.40
2022-08-27T22:13:50.112Z,4.87
2022-08-27T22:16:39.605Z,4.50
2022-08-27T22:19:26.569Z,4.90
2022-08-27T22:22:12.955Z,5.00
2022-08-27T22:25:00.240Z,5.10
2022-08-27T22:27:47.441Z,5.00
2022-08-27T22:30:34.009Z,5.33
2022-08-27T22:33:22.422Z,5.00
2022-08-27T22:36:09.727Z,5.73
2022-08-27T22:39:03.391Z,5.20
2022-08-27T22:41:50.387Z,5.47
2022-08-27T22:44:40.496Z,5.67
2022-08-27T22:47:26.963Z,5.10
2022-08-27T22:50:15.417Z,5.63
2022-08-27T22:53:04.632Z,5.30
2022-08-27T22:55:53.587Z,5.30
2022-08-27T22:58:46.054Z,5.90
2022-08-27T23:01:36.940Z,5.00
2022-08-27T23:04:39.259Z,5.33
2022-08-27T23:07:33.624Z,5.50
2022-08-27T23:10:25.754Z,5.37
2022-08-27T23:13:16.852Z,5.43
2022-08-27T23:16:06.465Z,5.50
2022-08-27T23:18:54.604Z,5.00
2022-08-27T23:21:42.605Z,5.03
2022-08-27T23:24:32.140Z,4.80
2022-08-27T23:27:31.347Z,5.47
2022-08-27T23:30:19.687Z,5.33
2022-08-27T23:33:07.787Z,5.67
2022-08-27T23:35:54.813Z,5.23
2022-08-27T23:38:41.583Z,5.37
2022-08-27T23:41:30.618Z,5.90
2022-08-27T23:44:17.106Z,5.20
2022-08-27T23:47:04.048Z,5.17
2022-08-27T23:49:51.215Z,5.00
2022-08-27T23:52:38.573Z,5.80
2022-08-27T23:55:25.660Z,5.73
2022-08-27T23:58:13.798Z,5.50
